Latest Coastal Weather Observations for Dennes Point

IDT60701

Issued at 4:42 pm EST Thursday 30 June 2016 (issued every 10 minutes, with the page automatically refreshed every 10 minutes)

About coastal observations | Map of coastal stations | Coastal observations for TAS | Marine services | Other Formats
Station Details ID: 094255 Name: DENNES POINT Lat: -43.06 Lon: 147.36 Height: 5.67 m
Data from the previous 72 hours. | See also: Recent months at Dennes Point
Date/Time
EST
Temp
°C
Wind Pressure Rain since
9am
mm
Weather Cloud Vis
km
Sea
Height
m
Swell
Dir  Spd
kts
Gust
kts
hPa Trend Height
m
Period
s
Dir
30/04:30pm 11.9 N 10 12 1000.7 - 0.0 - - - - - - -
30/04:00pm 11.9 NNE 14 17 1000.3 - 0.0 - - - - - - -
30/03:30pm 11.9 NNE 15 19 999.9 - 0.0 - - - - - - -
30/03:00pm 12.0 NNE 17 20 999.9 - 0.0 - - - - - - -
30/02:30pm 12.0 NNE 17 20 1000.0 - 0.0 - - - - - - -
30/02:00pm 12.1 NNE 17 21 1000.3 - 0.0 - - - - - - -
30/01:30pm 11.9 NNE 15 18 1000.8 - 0.0 - - - - - - -
30/01:00pm 11.7 NNE 16 20 1001.1 - 0.0 - - - - - - -
30/12:30pm 11.7 NNE 16 19 1001.8 - 0.0 - - - - - - -
30/12:00pm 11.7 NNE 17 20 1002.3 - 0.0 - - - - - - -
30/11:30am 11.8 NNE 16 20 1003.0 - 0.0 - - - - - - -
30/11:00am 11.7 NNE 16 20 1003.7 - 0.0 - - - - - - -
30/10:30am 11.6 NNE 15 19 1004.4 - 0.0 - - - - - - -
30/10:00am 11.5 NNE 16 19 1004.6 - 0.0 - - - - - - -
30/09:30am 11.4 NNE 16 19 1005.0 - 0.0 - - - - - - -
30/09:00am 11.4 NNE 16 19 1005.3 - 0.0 - - - - - - -
30/08:30am 11.3 NNE 16 20 1005.6 - 0.0 - - - - - - -
30/08:00am 11.2 NNE 15 18 1005.9 - 0.0 - - - - - - -
30/07:30am 11.1 NNE 18 21 1006.0 - 0.0 - - - - - - -
30/07:00am 11.0 NNE 15 19 1006.4 - 0.0 - - - - - - -
30/06:30am 11.0 NNE 17 20 1006.4 - 0.0 - - - - - - -
30/06:00am 11.3 NNE 11 14 1007.3 - 0.0 - - - - - - -
30/05:30am 11.8 N 8 10 1007.5 - 0.0 - - - - - - -
30/05:00am 11.9 N 8 11 1008.1 - 0.0 - - - - - - -
30/04:30am 12.0 NNW 6 10 1007.9 - 0.0 - - - - - - -
30/04:00am 11.4 NNE 10 13 1008.2 - 0.0 - - - - - - -
30/03:30am 10.9 E 8 9 1009.1 - 0.0 - - - - - - -
30/03:00am 10.9 E 7 8 1009.8 - 0.0 - - - - - - -
30/02:30am 11.2 ENE 6 8 1010.4 - 0.0 - - - - - - -
30/02:00am 11.1 NNE 8 11 1010.9 - 0.0 - - - - - - -
30/01:30am 11.0 NNE 9 11 1011.3 - 0.0 - - - - - - -
30/01:00am 11.0 N 9 11 1011.8 - 0.0 - - - - - - -
30/12:30am 11.0 N 12 13 1012.6 - 0.0 - - - - - - -
30/12:00am 11.4 N 13 16 1013.0 - 0.0 - - - - - - -
 
Date/Time
EST
Temp
°C
Wind Pressure Rain since
9am
mm
Weather Cloud Vis
km
Sea
Height
m
Swell
Dir  Spd
kts
Gust
kts
hPa Trend Height
m
Period
s
Dir
29/11:30pm 11.5 N 14 17 1013.6 - 0.0 - - - - - - -
29/11:00pm 11.6 N 13 18 1014.0 - 0.0 - - - - - - -
29/10:30pm 11.4 NNW 11 15 1014.4 - 0.0 - - - - - - -
29/10:00pm 11.0 N 14 16 1014.8 - 0.0 - - - - - - -
29/09:30pm 11.8 N 8 13 1015.1 - 0.0 - - - - - - -
29/09:00pm 11.1 ENE 5 8 1015.5 - 0.0 - - - - - - -
29/08:30pm 11.4 NNE 9 11 1015.9 - 0.0 - - - - - - -
29/08:00pm 10.5 W 1 2 1016.3 - 0.0 - - - - - - -
29/07:30pm 10.5 SW 1 4 1016.4 - 0.0 - - - - - - -
29/07:00pm 11.2 NNE 3 4 1016.6 - 0.0 - - - - - - -
29/06:30pm 11.4 N 4 5 1016.7 - 0.0 - - - - - - -
29/06:00pm 11.8 N 6 7 1016.8 - 0.0 - - - - - - -
29/05:30pm 12.0 NNW 5 7 1017.1 - 0.0 - - - - - - -
29/05:00pm 12.3 N 5 7 1017.1 - 0.0 - - - - - - -
29/04:30pm 12.8 NE 3 6 1017.2 - 0.0 - - - - - - -
29/04:00pm 13.0 CALM 0 0 1017.4 - 0.0 - - - - - - -
29/03:30pm 13.4 WSW 4 7 1017.3 - 0.0 - - - - - - -
29/03:00pm 13.8 W 4 6 1017.3 - 0.0 - - - - - - -
29/02:30pm 13.6 NW 5 9 1017.5 - 0.0 - - - - - - -
29/02:00pm 12.6 NNW 6 8 1017.8 - 0.0 - - - - - - -
29/01:30pm 12.2 N 10 13 1018.0 - 0.0 - - - - - - -
29/01:00pm 12.2 NNW 8 10 1018.3 - 0.0 - - - - - - -
29/12:30pm 12.2 N 7 9 1018.4 - 0.0 - - - - - - -
29/12:00pm 12.4 N 9 11 1018.7 - 0.0 - - - - - - -
29/11:30am 12.3 NNW 8 9 1019.2 - 0.0 - - - - - - -
29/11:00am 12.3 N 3 5 1019.5 - 0.0 - - - - - - -
29/10:30am 12.7 N 7 8 1019.7 - 0.0 - - - - - - -
29/10:00am 12.6 NNE 2 4 1019.6 - 0.0 - - - - - - -
29/09:30am 11.7 SSW 5 6 1019.5 - 0.0 - - - - - - -
29/09:00am 11.6 WSW 2 5 1019.4 - 1.6 - - - - - - -
29/08:30am 11.3 NNW 5 6 1019.2 - 1.6 - - - - - - -
29/08:00am 11.2 NW 5 8 1018.8 - 1.6 - - - - - - -
29/07:30am 11.7 WNW 6 9 1018.5 - 1.6 - - - - - - -
29/07:00am 10.5 WSW 6 8 1018.1 - 1.6 - - - - - - -
29/06:30am 11.1 W 7 9 1017.6 - 1.6 - - - - - - -
29/06:00am 11.8 WNW 7 10 1017.6 - 1.6 - - - - - - -
29/05:30am 10.9 N 2 3 1017.0 - 1.6 - - - - - - -
29/05:00am 11.0 WNW 14 18 1016.5 - 1.6 - - - - - - -
29/04:30am 11.6 NW 17 23 1015.6 - 1.6 - - - - - - -
29/04:24am 11.3 NW 15 20 1015.7 - 1.6 - - - - - - -
29/04:00am 10.9 NW 7 9 1016.3 - 1.6 - - - - - - -
29/03:30am 11.1 SW 4 9 1016.5 - 1.2 - - - - - - -
29/03:00am 11.6 S 5 8 1016.2 - 0.6 Rain - - - - - -
29/02:30am 13.0 NW 5 7 1015.7 - 0.2 - - - - - - -
29/02:00am 12.8 NNW 8 12 1015.2 - 0.2 - - - - - - -
29/01:30am 13.0 N 9 12 1015.0 - 0.2 - - - - - - -
29/01:00am 13.4 NNW 9 13 1014.9 - 0.2 - - - - - - -
29/12:30am 13.6 N 10 13 1014.9 - 0.2 - - - - - - -
29/12:00am 13.8 NNW 10 14 1014.6 - 0.2 - - - - - - -
 
Date/Time
EST
Temp
°C
Wind Pressure Rain since
9am
mm
Weather Cloud Vis
km
Sea
Height
m
Swell
Dir  Spd
kts
Gust
kts
hPa Trend Height
m
Period
s
Dir
28/11:30pm 13.8 NNW 10 15 1014.7 - 0.2 - - - - - - -
28/11:03pm 13.7 NW 15 26 1014.6 - 0.2 - - - - - - -
28/11:00pm 14.1 NW 14 26 1014.6 - 0.2 - - - - - - -
28/10:30pm 13.5 NW 13 20 1014.6 - 0.2 - - - - - - -
28/10:00pm 13.4 NW 11 16 1014.6 - 0.2 - - - - - - -
28/09:30pm 12.9 NW 9 15 1014.6 - 0.2 - - - - - - -
28/09:00pm 11.8 NNW 7 9 1014.7 - 0.2 - - - - - - -
28/08:30pm 12.1 NNW 5 7 1014.6 - 0.2 - - - - - - -
28/08:00pm 12.6 NNW 5 7 1014.8 - 0.2 - - - - - - -
28/07:30pm 12.3 NNW 5 8 1014.5 - 0.2 - - - - - - -
28/07:00pm 13.1 N 7 12 1014.4 - 0.2 - - - - - - -
28/06:30pm 13.3 NW 6 11 1014.0 - 0.2 - - - - - - -
28/06:00pm 13.9 NW 10 15 1013.9 - 0.2 - - - - - - -
28/05:30pm 13.5 NW 6 8 1013.7 - 0.2 - - - - - - -
28/05:00pm 13.8 WNW 9 12 1013.7 - 0.2 - - - - - - -
28/04:30pm 14.1 NW 6 9 1013.4 - 0.2 - - - - - - -
28/04:00pm 14.1 WNW 9 14 1013.2 - 0.2 - - - - - - -
28/03:30pm 14.6 NW 7 10 1013.1 - 0.2 - - - - - - -
28/03:00pm 14.7 W 6 11 1012.9 - 0.2 - - - - - - -
28/02:30pm 15.6 W 13 20 1012.8 - 0.2 - - - - - - -
28/02:00pm 15.8 NW 9 14 1012.6 - 0.2 - - - - - - -
28/01:30pm 15.9 WNW 9 17 1012.4 - 0.2 - - - - - - -
28/01:00pm 15.4 W 3 5 1012.5 - 0.2 - - - - - - -
28/12:30pm 15.3 NW 4 8 1012.6 - 0.2 - - - - - - -
28/12:00pm 13.5 NW 7 10 1012.7 - 0.2 - - - - - - -
28/11:30am 13.3 NW 9 12 1012.8 - 0.2 - - - - - - -
28/11:00am 13.5 WNW 10 15 1012.9 - 0.2 - - - - - - -
28/10:30am 13.3 WNW 10 15 1012.9 - 0.2 - - - - - - -
28/10:00am 12.9 W 9 11 1012.9 - 0.2 - - - - - - -
28/09:30am 12.7 WNW 8 10 1012.7 - 0.2 - - - - - - -
28/09:00am 13.3 WNW 10 14 1012.6 - 0.0 - - - - - - -
28/08:30am 12.9 WNW 11 15 1011.8 - 0.0 - - - - - - -
28/08:00am 12.8 WNW 10 15 1011.6 - 0.0 - - - - - - -
28/07:30am 12.1 NW 6 11 1011.6 - 0.0 - - - - - - -
28/07:00am 11.7 WNW 6 9 1011.4 - 0.0 - - - - - - -
28/06:30am 11.6 WNW 6 8 1011.1 - 0.0 - - - - - - -
28/06:00am 10.3 W 5 7 1010.8 - 0.0 - - - - - - -
28/05:30am 11.5 WNW 8 10 1010.3 - 0.0 - - - - - - -
28/05:00am 11.7 WNW 10 13 1010.0 - 0.0 - - - - - - -
28/04:30am 12.0 WNW 9 13 1010.0 - 0.0 - - - - - - -
28/04:00am 12.5 WNW 12 17 1009.9 - 0.0 - - - - - - -
28/03:30am 12.6 WNW 12 18 1009.8 - 0.0 - - - - - - -
28/03:00am 12.2 WNW 9 12 1009.9 - 0.0 - - - - - - -
28/02:30am 12.3 WNW 11 15 1010.3 - 0.0 - - - - - - -
28/02:00am 12.2 NW 8 10 1010.0 - 0.0 - - - - - - -
28/01:30am 11.2 N 8 13 1010.1 - 0.0 - - - - - - -
28/01:00am 10.9 N 7 9 1010.3 - 0.0 - - - - - - -
28/12:30am 11.1 N 9 14 1010.3 - 0.0 - - - - - - -
28/12:00am 10.9 NNW 7 9 1010.5 - 0.0 - - - - - - -
 
Date/Time
EST
Temp
°C
Wind Pressure Rain since
9am
mm
Weather Cloud Vis
km
Sea
Height
m
Swell
Dir  Spd
kts
Gust
kts
hPa Trend Height
m
Period
s
Dir
27/11:30pm 10.3 N 7 11 1010.5 - 0.0 - - - - - - -
27/11:00pm 10.0 NNW 7 9 1010.7 - 0.0 - - - - - - -
27/10:30pm 9.9 NNW 8 11 1010.8 - 0.0 - - - - - - -
27/10:00pm 10.2 NW 8 13 1011.0 - 0.0 - - - - - - -
27/09:30pm 9.8 NNW 6 9 1011.0 - 0.0 - - - - - - -
27/09:00pm 10.0 N 6 9 1011.2 - 0.0 - - - - - - -
27/08:30pm 10.5 N 9 13 1011.3 - 0.0 - - - - - - -
27/08:00pm 10.9 NNW 8 14 1011.3 - 0.0 - - - - - - -
27/07:30pm 10.8 N 9 12 1011.3 - 0.0 - - - - - - -
27/07:00pm 10.7 NNW 7 11 1011.4 - 0.0 - - - - - - -
27/06:30pm 10.6 NW 4 6 1011.4 - 0.0 - - - - - - -
27/06:00pm 10.5 NW 7 10 1011.1 - 0.0 - - - - - - -
27/05:30pm 10.8 NW 4 5 1010.9 - 0.0 - - - - - - -
27/05:00pm 10.8 WNW 9 13 1010.5 - 0.0 - - - - - - -

Other Formats:

Comma delimited format used in spreadsheet applications
http://www.bom.gov.au/fwo/IDT60701/IDT60701.94988.axf

JavaScript Object Notation format (JSON) in row-major order
http://www.bom.gov.au/fwo/IDT60701/IDT60701.94988.json